sensor_id;sensor_type;location;lat;lon;timestamp;P1;durP1;ratioP1;P2;durP2;ratioP2
1258;SDS011;619;51.472;6.628;2024-03-08T00:00:28;13.20;;;11.70;;
1258;SDS011;619;51.472;6.628;2024-03-08T00:02:53;16.00;;;12.43;;
1258;SDS011;619;51.472;6.628;2024-03-08T00:05:19;14.67;;;12.37;;
1258;SDS011;619;51.472;6.628;2024-03-08T00:07:45;16.03;;;12.83;;
1258;SDS011;619;51.472;6.628;2024-03-08T00:10:11;16.73;;;13.67;;
1258;SDS011;619;51.472;6.628;2024-03-08T00:12:45;17.60;;;12.87;;
1258;SDS011;619;51.472;6.628;2024-03-08T00:15:15;19.47;;;12.53;;
1258;SDS011;619;51.472;6.628;2024-03-08T00:17:41;16.27;;;11.90;;
1258;SDS011;619;51.472;6.628;2024-03-08T00:20:10;15.70;;;12.77;;
1258;SDS011;619;51.472;6.628;2024-03-08T00:22:38;14.33;;;11.33;;
1258;SDS011;619;51.472;6.628;2024-03-08T00:25:04;14.87;;;11.23;;
1258;SDS011;619;51.472;6.628;2024-03-08T00:27:42;14.90;;;11.83;;
1258;SDS011;619;51.472;6.628;2024-03-08T00:30:10;14.23;;;12.27;;
1258;SDS011;619;51.472;6.628;2024-03-08T00:32:38;20.10;;;11.97;;
1258;SDS011;619;51.472;6.628;2024-03-08T00:35:03;15.23;;;11.87;;
1258;SDS011;619;51.472;6.628;2024-03-08T00:37:32;15.93;;;11.67;;
1258;SDS011;619;51.472;6.628;2024-03-08T00:40:00;14.50;;;12.87;;
1258;SDS011;619;51.472;6.628;2024-03-08T00:42:27;17.70;;;12.13;;
1258;SDS011;619;51.472;6.628;2024-03-08T00:44:53;18.10;;;12.37;;
1258;SDS011;619;51.472;6.628;2024-03-08T00:47:19;16.83;;;12.30;;
1258;SDS011;619;51.472;6.628;2024-03-08T00:49:45;16.10;;;12.23;;
1258;SDS011;619;51.472;6.628;2024-03-08T00:52:13;16.37;;;12.90;;
1258;SDS011;619;51.472;6.628;2024-03-08T00:54:41;15.23;;;12.23;;
1258;SDS011;619;51.472;6.628;2024-03-08T00:57:08;14.37;;;11.53;;
1258;SDS011;619;51.472;6.628;2024-03-08T00:59:37;15.83;;;12.63;;
1258;SDS011;619;51.472;6.628;2024-03-08T01:02:03;16.83;;;12.30;;
1258;SDS011;619;51.472;6.628;2024-03-08T01:04:29;17.53;;;11.80;;
1258;SDS011;619;51.472;6.628;2024-03-08T01:06:58;16.00;;;12.87;;
1258;SDS011;619;51.472;6.628;2024-03-08T01:09:24;17.03;;;12.87;;
1258;SDS011;619;51.472;6.628;2024-03-08T01:11:52;18.00;;;12.57;;
1258;SDS011;619;51.472;6.628;2024-03-08T01:14:20;15.30;;;12.20;;
1258;SDS011;619;51.472;6.628;2024-03-08T01:16:49;16.40;;;13.77;;
1258;SDS011;619;51.472;6.628;2024-03-08T01:19:17;13.93;;;12.33;;
1258;SDS011;619;51.472;6.628;2024-03-08T01:21:43;18.50;;;13.50;;
1258;SDS011;619;51.472;6.628;2024-03-08T01:24:08;16.83;;;13.33;;
1258;SDS011;619;51.472;6.628;2024-03-08T01:26:34;18.70;;;12.20;;
1258;SDS011;619;51.472;6.628;2024-03-08T01:29:00;16.90;;;13.50;;
1258;SDS011;619;51.472;6.628;2024-03-08T01:31:29;17.20;;;12.93;;
1258;SDS011;619;51.472;6.628;2024-03-08T01:33:55;25.00;;;14.37;;
1258;SDS011;619;51.472;6.628;2024-03-08T01:36:21;17.50;;;14.17;;
1258;SDS011;619;51.472;6.628;2024-03-08T01:38:47;18.47;;;13.53;;
1258;SDS011;619;51.472;6.628;2024-03-08T01:41:12;13.70;;;11.20;;
1258;SDS011;619;51.472;6.628;2024-03-08T01:43:39;15.50;;;12.10;;
1258;SDS011;619;51.472;6.628;2024-03-08T01:46:07;14.87;;;12.70;;
1258;SDS011;619;51.472;6.628;2024-03-08T01:48:37;13.53;;;12.10;;
1258;SDS011;619;51.472;6.628;2024-03-08T01:51:06;17.57;;;12.60;;
1258;SDS011;619;51.472;6.628;2024-03-08T01:53:32;22.40;;;13.17;;
1258;SDS011;619;51.472;6.628;2024-03-08T01:55:59;15.53;;;12.50;;
1258;SDS011;619;51.472;6.628;2024-03-08T01:58:29;14.03;;;12.40;;
1258;SDS011;619;51.472;6.628;2024-03-08T02:00:58;15.40;;;12.50;;
1258;SDS011;619;51.472;6.628;2024-03-08T02:03:26;14.83;;;12.57;;
1258;SDS011;619;51.472;6.628;2024-03-08T02:05:55;16.87;;;12.90;;
1258;SDS011;619;51.472;6.628;2024-03-08T02:08:20;16.80;;;13.50;;
1258;SDS011;619;51.472;6.628;2024-03-08T02:10:47;14.90;;;12.80;;
1258;SDS011;619;51.472;6.628;2024-03-08T02:13:16;15.90;;;12.87;;
1258;SDS011;619;51.472;6.628;2024-03-08T02:15:51;18.87;;;13.43;;
1258;SDS011;619;51.472;6.628;2024-03-08T02:18:27;17.33;;;14.23;;
1258;SDS011;619;51.472;6.628;2024-03-08T02:20:56;19.67;;;14.70;;
1258;SDS011;619;51.472;6.628;2024-03-08T02:23:22;16.83;;;13.03;;
1258;SDS011;619;51.472;6.628;2024-03-08T02:25:51;20.27;;;13.30;;
1258;SDS011;619;51.472;6.628;2024-03-08T02:28:20;15.30;;;13.23;;
1258;SDS011;619;51.472;6.628;2024-03-08T02:30:46;20.20;;;13.40;;
1258;SDS011;619;51.472;6.628;2024-03-08T02:33:15;20.00;;;13.80;;
1258;SDS011;619;51.472;6.628;2024-03-08T02:35:42;16.27;;;13.87;;
1258;SDS011;619;51.472;6.628;2024-03-08T02:38:14;17.77;;;14.87;;
1258;SDS011;619;51.472;6.628;2024-03-08T02:40:42;17.40;;;14.00;;
1258;SDS011;619;51.472;6.628;2024-03-08T02:43:11;18.33;;;14.03;;
1258;SDS011;619;51.472;6.628;2024-03-08T02:45:37;18.13;;;12.97;;
1258;SDS011;619;51.472;6.628;2024-03-08T02:48:03;15.90;;;13.30;;
1258;SDS011;619;51.472;6.628;2024-03-08T02:50:32;15.73;;;11.30;;
1258;SDS011;619;51.472;6.628;2024-03-08T02:53:00;16.70;;;10.93;;
1258;SDS011;619;51.472;6.628;2024-03-08T02:55:26;21.03;;;14.87;;
1258;SDS011;619;51.472;6.628;2024-03-08T02:57:52;20.67;;;14.90;;
1258;SDS011;619;51.472;6.628;2024-03-08T03:00:19;19.83;;;12.80;;
1258;SDS011;619;51.472;6.628;2024-03-08T03:02:49;17.93;;;13.83;;
1258;SDS011;619;51.472;6.628;2024-03-08T03:05:24;18.40;;;13.93;;
1258;SDS011;619;51.472;6.628;2024-03-08T03:07:50;17.87;;;14.33;;
1258;SDS011;619;51.472;6.628;2024-03-08T03:10:16;19.90;;;13.40;;
1258;SDS011;619;51.472;6.628;2024-03-08T03:12:46;19.67;;;13.23;;
1258;SDS011;619;51.472;6.628;2024-03-08T03:15:13;15.73;;;12.70;;
1258;SDS011;619;51.472;6.628;2024-03-08T03:17:45;19.37;;;14.20;;
1258;SDS011;619;51.472;6.628;2024-03-08T03:20:18;16.70;;;13.57;;
1258;SDS011;619;51.472;6.628;2024-03-08T03:22:57;18.43;;;13.40;;
1258;SDS011;619;51.472;6.628;2024-03-08T03:25:26;20.30;;;13.17;;
1258;SDS011;619;51.472;6.628;2024-03-08T03:27:59;15.80;;;13.70;;
1258;SDS011;619;51.472;6.628;2024-03-08T03:30:25;18.87;;;13.03;;
1258;SDS011;619;51.472;6.628;2024-03-08T03:32:58;18.53;;;13.50;;
1258;SDS011;619;51.472;6.628;2024-03-08T03:35:32;20.50;;;12.83;;
1258;SDS011;619;51.472;6.628;2024-03-08T03:37:59;18.33;;;13.87;;
1258;SDS011;619;51.472;6.628;2024-03-08T03:40:32;18.10;;;14.40;;
1258;SDS011;619;51.472;6.628;2024-03-08T03:43:03;17.63;;;13.43;;
1258;SDS011;619;51.472;6.628;2024-03-08T03:45:29;19.57;;;12.77;;
1258;SDS011;619;51.472;6.628;2024-03-08T03:47:57;19.40;;;14.33;;
1258;SDS011;619;51.472;6.628;2024-03-08T03:50:25;19.93;;;13.50;;
1258;SDS011;619;51.472;6.628;2024-03-08T03:52:51;18.97;;;14.10;;
1258;SDS011;619;51.472;6.628;2024-03-08T03:55:17;18.07;;;13.63;;
1258;SDS011;619;51.472;6.628;2024-03-08T03:57:43;19.93;;;14.87;;
1258;SDS011;619;51.472;6.628;2024-03-08T04:00:10;18.07;;;13.33;;
1258;SDS011;619;51.472;6.628;2024-03-08T04:02:40;23.80;;;13.90;;
1258;SDS011;619;51.472;6.628;2024-03-08T04:05:07;19.00;;;13.77;;
1258;SDS011;619;51.472;6.628;2024-03-08T04:07:34;20.03;;;13.37;;
1258;SDS011;619;51.472;6.628;2024-03-08T04:10:02;21.87;;;14.73;;
1258;SDS011;619;51.472;6.628;2024-03-08T04:12:28;18.80;;;13.50;;
1258;SDS011;619;51.472;6.628;2024-03-08T04:14:57;15.83;;;12.70;;
1258;SDS011;619;51.472;6.628;2024-03-08T04:17:23;17.50;;;11.90;;
1258;SDS011;619;51.472;6.628;2024-03-08T04:19:51;19.97;;;13.80;;
1258;SDS011;619;51.472;6.628;2024-03-08T04:22:19;16.47;;;12.73;;
1258;SDS011;619;51.472;6.628;2024-03-08T04:24:45;22.60;;;15.27;;
1258;SDS011;619;51.472;6.628;2024-03-08T04:27:12;19.60;;;15.03;;
1258;SDS011;619;51.472;6.628;2024-03-08T04:29:38;15.30;;;13.23;;
1258;SDS011;619;51.472;6.628;2024-03-08T04:32:06;15.47;;;12.10;;
1258;SDS011;619;51.472;6.628;2024-03-08T04:34:37;22.97;;;13.67;;
1258;SDS011;619;51.472;6.628;2024-03-08T04:37:03;15.87;;;11.83;;
1258;SDS011;619;51.472;6.628;2024-03-08T04:39:32;17.33;;;13.23;;
1258;SDS011;619;51.472;6.628;2024-03-08T04:41:58;40.83;;;13.40;;
1258;SDS011;619;51.472;6.628;2024-03-08T04:44:28;17.10;;;12.93;;
1258;SDS011;619;51.472;6.628;2024-03-08T04:46:54;22.50;;;14.00;;
1258;SDS011;619;51.472;6.628;2024-03-08T04:49:20;20.13;;;14.50;;
1258;SDS011;619;51.472;6.628;2024-03-08T04:51:47;23.70;;;13.50;;
1258;SDS011;619;51.472;6.628;2024-03-08T04:54:17;20.93;;;14.90;;
1258;SDS011;619;51.472;6.628;2024-03-08T04:56:45;21.93;;;14.90;;
1258;SDS011;619;51.472;6.628;2024-03-08T04:59:14;19.93;;;14.80;;
1258;SDS011;619;51.472;6.628;2024-03-08T05:01:39;23.77;;;15.33;;
1258;SDS011;619;51.472;6.628;2024-03-08T05:04:05;21.20;;;15.03;;
1258;SDS011;619;51.472;6.628;2024-03-08T05:06:33;24.43;;;14.00;;
1258;SDS011;619;51.472;6.628;2024-03-08T05:08:59;20.77;;;15.90;;
1258;SDS011;619;51.472;6.628;2024-03-08T05:11:25;25.80;;;16.03;;
1258;SDS011;619;51.472;6.628;2024-03-08T05:13:50;23.00;;;14.30;;
1258;SDS011;619;51.472;6.628;2024-03-08T05:16:18;26.57;;;15.00;;
1258;SDS011;619;51.472;6.628;2024-03-08T05:18:47;19.67;;;15.50;;
1258;SDS011;619;51.472;6.628;2024-03-08T05:21:13;23.00;;;16.60;;
1258;SDS011;619;51.472;6.628;2024-03-08T05:23:41;21.20;;;14.57;;
1258;SDS011;619;51.472;6.628;2024-03-08T05:26:06;21.40;;;15.83;;
1258;SDS011;619;51.472;6.628;2024-03-08T05:28:32;20.40;;;15.43;;
1258;SDS011;619;51.472;6.628;2024-03-08T05:30:58;22.63;;;16.50;;
1258;SDS011;619;51.472;6.628;2024-03-08T05:33:26;20.80;;;14.43;;
1258;SDS011;619;51.472;6.628;2024-03-08T05:35:51;21.07;;;14.93;;
1258;SDS011;619;51.472;6.628;2024-03-08T05:38:17;23.43;;;14.87;;
1258;SDS011;619;51.472;6.628;2024-03-08T05:40:43;41.13;;;15.50;;
1258;SDS011;619;51.472;6.628;2024-03-08T05:43:09;23.80;;;16.20;;
1258;SDS011;619;51.472;6.628;2024-03-08T05:45:34;23.73;;;14.97;;
1258;SDS011;619;51.472;6.628;2024-03-08T05:48:00;26.23;;;16.87;;
1258;SDS011;619;51.472;6.628;2024-03-08T05:50:26;20.13;;;14.37;;
1258;SDS011;619;51.472;6.628;2024-03-08T05:52:52;24.10;;;15.60;;
1258;SDS011;619;51.472;6.628;2024-03-08T05:55:20;26.67;;;15.80;;
1258;SDS011;619;51.472;6.628;2024-03-08T05:57:46;24.17;;;15.67;;
1258;SDS011;619;51.472;6.628;2024-03-08T06:00:11;23.50;;;16.93;;
1258;SDS011;619;51.472;6.628;2024-03-08T06:02:40;25.40;;;16.50;;
1258;SDS011;619;51.472;6.628;2024-03-08T06:05:10;23.67;;;15.03;;
1258;SDS011;619;51.472;6.628;2024-03-08T06:07:38;27.23;;;17.30;;
1258;SDS011;619;51.472;6.628;2024-03-08T06:10:08;27.73;;;16.67;;
1258;SDS011;619;51.472;6.628;2024-03-08T06:12:35;24.83;;;15.47;;
1258;SDS011;619;51.472;6.628;2024-03-08T06:15:08;28.93;;;16.60;;
1258;SDS011;619;51.472;6.628;2024-03-08T06:17:39;19.50;;;15.60;;
1258;SDS011;619;51.472;6.628;2024-03-08T06:20:08;21.93;;;16.07;;
1258;SDS011;619;51.472;6.628;2024-03-08T06:22:38;20.03;;;15.97;;
1258;SDS011;619;51.472;6.628;2024-03-08T06:25:06;20.53;;;15.80;;
1258;SDS011;619;51.472;6.628;2024-03-08T06:27:39;23.13;;;16.50;;
1258;SDS011;619;51.472;6.628;2024-03-08T06:30:07;22.23;;;15.47;;
1258;SDS011;619;51.472;6.628;2024-03-08T06:32:35;25.70;;;15.93;;
1258;SDS011;619;51.472;6.628;2024-03-08T06:35:03;22.77;;;16.27;;
1258;SDS011;619;51.472;6.628;2024-03-08T06:37:33;24.20;;;15.90;;
1258;SDS011;619;51.472;6.628;2024-03-08T06:39:59;26.73;;;17.13;;
1258;SDS011;619;51.472;6.628;2024-03-08T06:42:26;22.80;;;15.97;;
1258;SDS011;619;51.472;6.628;2024-03-08T06:44:54;21.90;;;15.40;;
1258;SDS011;619;51.472;6.628;2024-03-08T06:47:25;20.53;;;16.13;;
1258;SDS011;619;51.472;6.628;2024-03-08T06:49:50;22.40;;;16.17;;
1258;SDS011;619;51.472;6.628;2024-03-08T06:52:17;25.63;;;16.37;;
1258;SDS011;619;51.472;6.628;2024-03-08T06:54:51;20.00;;;16.23;;
1258;SDS011;619;51.472;6.628;2024-03-08T06:57:17;23.70;;;16.00;;
1258;SDS011;619;51.472;6.628;2024-03-08T06:59:46;20.10;;;14.57;;
1258;SDS011;619;51.472;6.628;2024-03-08T07:02:15;22.77;;;14.97;;
1258;SDS011;619;51.472;6.628;2024-03-08T07:04:41;21.37;;;13.17;;
1258;SDS011;619;51.472;6.628;2024-03-08T07:07:07;20.47;;;14.87;;
1258;SDS011;619;51.472;6.628;2024-03-08T07:09:34;20.20;;;13.80;;
1258;SDS011;619;51.472;6.628;2024-03-08T07:12:01;20.53;;;14.73;;
1258;SDS011;619;51.472;6.628;2024-03-08T07:14:29;25.13;;;17.10;;
1258;SDS011;619;51.472;6.628;2024-03-08T07:16:56;17.97;;;13.90;;
1258;SDS011;619;51.472;6.628;2024-03-08T07:19:21;27.97;;;18.17;;
1258;SDS011;619;51.472;6.628;2024-03-08T07:21:50;23.87;;;16.27;;
1258;SDS011;619;51.472;6.628;2024-03-08T07:24:15;29.07;;;17.53;;
1258;SDS011;619;51.472;6.628;2024-03-08T07:27:05;23.20;;;16.73;;
1258;SDS011;619;51.472;6.628;2024-03-08T07:29:33;26.83;;;16.17;;
1258;SDS011;619;51.472;6.628;2024-03-08T07:32:01;20.87;;;15.73;;
1258;SDS011;619;51.472;6.628;2024-03-08T07:34:43;24.63;;;18.40;;
1258;SDS011;619;51.472;6.628;2024-03-08T07:37:08;23.87;;;17.20;;
1258;SDS011;619;51.472;6.628;2024-03-08T07:39:40;22.47;;;15.83;;
1258;SDS011;619;51.472;6.628;2024-03-08T07:42:08;29.07;;;16.13;;
1258;SDS011;619;51.472;6.628;2024-03-08T07:44:35;20.43;;;15.40;;
1258;SDS011;619;51.472;6.628;2024-03-08T07:47:00;22.83;;;16.20;;
1258;SDS011;619;51.472;6.628;2024-03-08T07:49:26;22.40;;;16.17;;
1258;SDS011;619;51.472;6.628;2024-03-08T07:51:52;21.60;;;15.93;;
1258;SDS011;619;51.472;6.628;2024-03-08T07:54:17;24.80;;;16.20;;
1258;SDS011;619;51.472;6.628;2024-03-08T07:56:43;24.70;;;16.90;;
1258;SDS011;619;51.472;6.628;2024-03-08T07:59:08;21.40;;;16.50;;
1258;SDS011;619;51.472;6.628;2024-03-08T08:01:39;26.33;;;19.20;;
1258;SDS011;619;51.472;6.628;2024-03-08T08:04:05;20.97;;;14.43;;
1258;SDS011;619;51.472;6.628;2024-03-08T08:06:30;25.23;;;16.27;;
1258;SDS011;619;51.472;6.628;2024-03-08T08:09:00;22.37;;;15.20;;
1258;SDS011;619;51.472;6.628;2024-03-08T08:11:28;25.40;;;15.53;;
1258;SDS011;619;51.472;6.628;2024-03-08T08:13:57;20.80;;;15.17;;
1258;SDS011;619;51.472;6.628;2024-03-08T08:16:24;20.50;;;15.70;;
1258;SDS011;619;51.472;6.628;2024-03-08T08:18:50;18.40;;;15.03;;
1258;SDS011;619;51.472;6.628;2024-03-08T08:21:18;17.97;;;13.77;;
1258;SDS011;619;51.472;6.628;2024-03-08T08:23:43;21.97;;;16.10;;
1258;SDS011;619;51.472;6.628;2024-03-08T08:26:10;19.23;;;16.50;;
1258;SDS011;619;51.472;6.628;2024-03-08T08:28:36;23.70;;;16.77;;
1258;SDS011;619;51.472;6.628;2024-03-08T08:31:05;23.47;;;15.30;;
1258;SDS011;619;51.472;6.628;2024-03-08T08:33:32;24.23;;;16.77;;
1258;SDS011;619;51.472;6.628;2024-03-08T08:35:59;23.47;;;15.23;;
1258;SDS011;619;51.472;6.628;2024-03-08T08:38:28;21.93;;;14.50;;
1258;SDS011;619;51.472;6.628;2024-03-08T08:40:57;19.27;;;16.17;;
1258;SDS011;619;51.472;6.628;2024-03-08T08:43:22;24.37;;;15.63;;
1258;SDS011;619;51.472;6.628;2024-03-08T08:45:50;24.80;;;17.30;;
1258;SDS011;619;51.472;6.628;2024-03-08T08:48:19;21.17;;;13.53;;
1258;SDS011;619;51.472;6.628;2024-03-08T08:50:45;20.90;;;14.00;;
1258;SDS011;619;51.472;6.628;2024-03-08T08:53:11;20.03;;;16.40;;
1258;SDS011;619;51.472;6.628;2024-03-08T08:55:39;24.60;;;16.00;;
1258;SDS011;619;51.472;6.628;2024-03-08T08:58:05;17.80;;;13.97;;
1258;SDS011;619;51.472;6.628;2024-03-08T09:00:32;17.67;;;13.20;;
1258;SDS011;619;51.472;6.628;2024-03-08T09:02:59;26.77;;;16.00;;
1258;SDS011;619;51.472;6.628;2024-03-08T09:05:27;18.57;;;13.50;;
1258;SDS011;619;51.472;6.628;2024-03-08T09:07:53;17.83;;;13.80;;
1258;SDS011;619;51.472;6.628;2024-03-08T09:10:22;23.20;;;14.87;;
1258;SDS011;619;51.472;6.628;2024-03-08T09:12:48;17.37;;;13.67;;
1258;SDS011;619;51.472;6.628;2024-03-08T09:15:16;20.17;;;13.40;;
1258;SDS011;619;51.472;6.628;2024-03-08T09:17:42;20.50;;;12.93;;
1258;SDS011;619;51.472;6.628;2024-03-08T09:20:13;19.60;;;13.83;;
1258;SDS011;619;51.472;6.628;2024-03-08T09:22:40;15.67;;;11.33;;
1258;SDS011;619;51.472;6.628;2024-03-08T09:25:08;25.33;;;14.57;;
1258;SDS011;619;51.472;6.628;2024-03-08T09:27:35;18.03;;;11.93;;
1258;SDS011;619;51.472;6.628;2024-03-08T09:30:00;16.80;;;11.87;;
1258;SDS011;619;51.472;6.628;2024-03-08T09:32:29;19.20;;;13.87;;
1258;SDS011;619;51.472;6.628;2024-03-08T09:34:57;16.37;;;11.07;;
1258;SDS011;619;51.472;6.628;2024-03-08T09:37:26;18.60;;;14.23;;
1258;SDS011;619;51.472;6.628;2024-03-08T09:39:52;16.73;;;13.10;;
1258;SDS011;619;51.472;6.628;2024-03-08T09:42:17;18.70;;;14.40;;
1258;SDS011;619;51.472;6.628;2024-03-08T09:44:45;19.70;;;14.37;;
1258;SDS011;619;51.472;6.628;2024-03-08T09:47:12;19.50;;;14.73;;
1258;SDS011;619;51.472;6.628;2024-03-08T09:49:39;18.90;;;15.20;;
1258;SDS011;619;51.472;6.628;2024-03-08T09:52:08;22.50;;;14.10;;
1258;SDS011;619;51.472;6.628;2024-03-08T09:54:35;18.97;;;12.30;;
1258;SDS011;619;51.472;6.628;2024-03-08T09:57:01;16.50;;;13.50;;
1258;SDS011;619;51.472;6.628;2024-03-08T09:59:33;15.90;;;14.30;;
1258;SDS011;619;51.472;6.628;2024-03-08T10:02:01;18.40;;;13.57;;
1258;SDS011;619;51.472;6.628;2024-03-08T10:04:29;17.40;;;13.60;;
1258;SDS011;619;51.472;6.628;2024-03-08T10:07:00;18.80;;;14.17;;
1258;SDS011;619;51.472;6.628;2024-03-08T10:09:28;16.70;;;14.07;;
1258;SDS011;619;51.472;6.628;2024-03-08T10:11:57;17.17;;;14.10;;
1258;SDS011;619;51.472;6.628;2024-03-08T10:14:23;17.77;;;14.13;;
1258;SDS011;619;51.472;6.628;2024-03-08T10:16:54;17.33;;;13.13;;
1258;SDS011;619;51.472;6.628;2024-03-08T10:19:24;15.43;;;12.50;;
1258;SDS011;619;51.472;6.628;2024-03-08T10:21:51;17.20;;;13.03;;
1258;SDS011;619;51.472;6.628;2024-03-08T10:24:18;16.67;;;13.60;;
1258;SDS011;619;51.472;6.628;2024-03-08T10:26:44;18.20;;;13.57;;
1258;SDS011;619;51.472;6.628;2024-03-08T10:29:13;14.40;;;12.90;;
1258;SDS011;619;51.472;6.628;2024-03-08T10:31:46;20.87;;;15.13;;
1258;SDS011;619;51.472;6.628;2024-03-08T10:34:15;17.70;;;13.33;;
1258;SDS011;619;51.472;6.628;2024-03-08T10:36:41;17.73;;;14.27;;
1258;SDS011;619;51.472;6.628;2024-03-08T10:39:27;16.60;;;13.40;;
1258;SDS011;619;51.472;6.628;2024-03-08T10:41:56;23.57;;;15.80;;
1258;SDS011;619;51.472;6.628;2024-03-08T10:49:30;17.73;;;13.60;;
1258;SDS011;619;51.472;6.628;2024-03-08T10:52:03;16.03;;;13.53;;
1258;SDS011;619;51.472;6.628;2024-03-08T10:54:30;18.00;;;14.17;;
1258;SDS011;619;51.472;6.628;2024-03-08T10:56:58;15.73;;;12.50;;
1258;SDS011;619;51.472;6.628;2024-03-08T10:59:27;18.30;;;13.23;;
1258;SDS011;619;51.472;6.628;2024-03-08T11:01:54;18.50;;;12.67;;
1258;SDS011;619;51.472;6.628;2024-03-08T11:04:22;19.60;;;13.33;;
1258;SDS011;619;51.472;6.628;2024-03-08T11:06:48;22.83;;;15.00;;
1258;SDS011;619;51.472;6.628;2024-03-08T11:09:31;16.10;;;12.40;;
1258;SDS011;619;51.472;6.628;2024-03-08T11:14:50;19.80;;;14.47;;
1258;SDS011;619;51.472;6.628;2024-03-08T11:17:25;15.73;;;13.60;;
1258;SDS011;619;51.472;6.628;2024-03-08T11:20:10;15.77;;;13.27;;
1258;SDS011;619;51.472;6.628;2024-03-08T11:22:43;20.87;;;14.13;;
1258;SDS011;619;51.472;6.628;2024-03-08T11:33:24;15.20;;;13.10;;
1258;SDS011;619;51.472;6.628;2024-03-08T11:35:57;18.60;;;13.50;;
1258;SDS011;619;51.472;6.628;2024-03-08T11:38:42;17.40;;;13.03;;
1258;SDS011;619;51.472;6.628;2024-03-08T11:41:09;18.30;;;13.37;;
1258;SDS011;619;51.472;6.628;2024-03-08T11:43:41;18.47;;;14.00;;
1258;SDS011;619;51.472;6.628;2024-03-08T11:46:10;17.93;;;13.27;;
1258;SDS011;619;51.472;6.628;2024-03-08T11:48:43;17.80;;;10.77;;
1258;SDS011;619;51.472;6.628;2024-03-08T11:51:15;17.53;;;13.50;;
1258;SDS011;619;51.472;6.628;2024-03-08T11:53:43;17.47;;;12.90;;
1258;SDS011;619;51.472;6.628;2024-03-08T11:56:10;18.70;;;13.60;;
1258;SDS011;619;51.472;6.628;2024-03-08T11:58:38;18.30;;;13.60;;
1258;SDS011;619;51.472;6.628;2024-03-08T12:01:08;16.90;;;14.37;;
1258;SDS011;619;51.472;6.628;2024-03-08T12:03:42;20.23;;;14.20;;
1258;SDS011;619;51.472;6.628;2024-03-08T12:06:08;19.43;;;13.90;;
1258;SDS011;619;51.472;6.628;2024-03-08T12:08:37;17.97;;;13.70;;
1258;SDS011;619;51.472;6.628;2024-03-08T12:11:06;19.63;;;14.27;;
1258;SDS011;619;51.472;6.628;2024-03-08T12:13:35;19.23;;;13.77;;
1258;SDS011;619;51.472;6.628;2024-03-08T12:16:04;19.50;;;13.47;;
1258;SDS011;619;51.472;6.628;2024-03-08T12:18:33;19.43;;;14.07;;
1258;SDS011;619;51.472;6.628;2024-03-08T12:21:09;24.70;;;14.77;;
1258;SDS011;619;51.472;6.628;2024-03-08T12:23:38;18.13;;;13.73;;
1258;SDS011;619;51.472;6.628;2024-03-08T12:26:16;19.10;;;13.77;;
1258;SDS011;619;51.472;6.628;2024-03-08T12:28:48;19.67;;;14.03;;
1258;SDS011;619;51.472;6.628;2024-03-08T12:31:16;16.97;;;13.40;;
1258;SDS011;619;51.472;6.628;2024-03-08T12:33:49;18.47;;;12.73;;
1258;SDS011;619;51.472;6.628;2024-03-08T12:36:16;18.43;;;14.43;;
1258;SDS011;619;51.472;6.628;2024-03-08T12:38:45;18.30;;;13.90;;
1258;SDS011;619;51.472;6.628;2024-03-08T12:41:18;14.73;;;12.53;;
1258;SDS011;619;51.472;6.628;2024-03-08T12:43:44;17.87;;;14.20;;
1258;SDS011;619;51.472;6.628;2024-03-08T12:46:22;14.30;;;12.80;;
1258;SDS011;619;51.472;6.628;2024-03-08T12:48:51;17.87;;;14.50;;
1258;SDS011;619;51.472;6.628;2024-03-08T12:51:18;19.20;;;14.20;;
1258;SDS011;619;51.472;6.628;2024-03-08T12:53:45;20.13;;;13.90;;
1258;SDS011;619;51.472;6.628;2024-03-08T12:56:28;19.90;;;13.80;;
1258;SDS011;619;51.472;6.628;2024-03-08T12:58:55;20.40;;;12.60;;
1258;SDS011;619;51.472;6.628;2024-03-08T13:01:24;21.50;;;13.30;;
1258;SDS011;619;51.472;6.628;2024-03-08T13:03:49;16.80;;;14.10;;
1258;SDS011;619;51.472;6.628;2024-03-08T13:06:15;17.37;;;13.50;;
1258;SDS011;619;51.472;6.628;2024-03-08T13:08:41;16.53;;;12.33;;
1258;SDS011;619;51.472;6.628;2024-03-08T13:11:11;15.23;;;12.87;;
1258;SDS011;619;51.472;6.628;2024-03-08T13:13:37;21.27;;;12.43;;
1258;SDS011;619;51.472;6.628;2024-03-08T13:16:05;15.70;;;12.23;;
1258;SDS011;619;51.472;6.628;2024-03-08T13:18:36;14.63;;;12.30;;
1258;SDS011;619;51.472;6.628;2024-03-08T13:21:02;15.77;;;12.70;;
1258;SDS011;619;51.472;6.628;2024-03-08T13:23:37;12.60;;;10.60;;
1258;SDS011;619;51.472;6.628;2024-03-08T13:26:12;19.17;;;16.03;;
1258;SDS011;619;51.472;6.628;2024-03-08T13:28:43;16.00;;;12.63;;
1258;SDS011;619;51.472;6.628;2024-03-08T13:31:13;15.90;;;12.67;;
1258;SDS011;619;51.472;6.628;2024-03-08T13:33:44;14.03;;;11.30;;
1258;SDS011;619;51.472;6.628;2024-03-08T13:36:12;15.03;;;12.43;;
1258;SDS011;619;51.472;6.628;2024-03-08T13:38:44;13.93;;;10.77;;
1258;SDS011;619;51.472;6.628;2024-03-08T13:41:11;13.40;;;10.77;;
1258;SDS011;619;51.472;6.628;2024-03-08T13:43:39;11.10;;;9.40;;
1258;SDS011;619;51.472;6.628;2024-03-08T13:46:14;10.97;;;9.43;;
1258;SDS011;619;51.472;6.628;2024-03-08T13:48:40;10.27;;;8.03;;
1258;SDS011;619;51.472;6.628;2024-03-08T13:51:06;12.37;;;10.47;;
1258;SDS011;619;51.472;6.628;2024-03-08T13:53:32;11.17;;;8.73;;
1258;SDS011;619;51.472;6.628;2024-03-08T13:55:59;11.80;;;8.73;;
1258;SDS011;619;51.472;6.628;2024-03-08T13:58:29;9.53;;;7.50;;
1258;SDS011;619;51.472;6.628;2024-03-08T14:00:57;11.97;;;8.50;;
1258;SDS011;619;51.472;6.628;2024-03-08T14:03:22;8.00;;;6.47;;
1258;SDS011;619;51.472;6.628;2024-03-08T14:05:49;10.20;;;6.80;;
1258;SDS011;619;51.472;6.628;2024-03-08T14:08:15;9.50;;;6.77;;
1258;SDS011;619;51.472;6.628;2024-03-08T14:10:45;10.20;;;6.50;;
1258;SDS011;619;51.472;6.628;2024-03-08T14:13:17;9.00;;;6.10;;
1258;SDS011;619;51.472;6.628;2024-03-08T14:15:46;7.10;;;5.23;;
1258;SDS011;619;51.472;6.628;2024-03-08T14:18:14;7.13;;;6.20;;
1258;SDS011;619;51.472;6.628;2024-03-08T14:20:44;8.37;;;6.70;;
1258;SDS011;619;51.472;6.628;2024-03-08T14:23:09;7.70;;;6.07;;
1258;SDS011;619;51.472;6.628;2024-03-08T14:25:37;8.00;;;6.10;;
1258;SDS011;619;51.472;6.628;2024-03-08T14:28:03;8.93;;;6.53;;
1258;SDS011;619;51.472;6.628;2024-03-08T14:30:32;8.60;;;7.10;;
1258;SDS011;619;51.472;6.628;2024-03-08T14:33:03;7.10;;;6.20;;
1258;SDS011;619;51.472;6.628;2024-03-08T14:35:30;8.00;;;6.43;;
1258;SDS011;619;51.472;6.628;2024-03-08T14:37:59;7.50;;;5.93;;
1258;SDS011;619;51.472;6.628;2024-03-08T14:40:27;7.47;;;6.50;;
1258;SDS011;619;51.472;6.628;2024-03-08T14:42:53;7.70;;;6.00;;
1258;SDS011;619;51.472;6.628;2024-03-08T14:45:19;7.10;;;6.10;;
1258;SDS011;619;51.472;6.628;2024-03-08T14:47:48;7.13;;;6.50;;
1258;SDS011;619;51.472;6.628;2024-03-08T14:50:20;7.80;;;5.87;;
1258;SDS011;619;51.472;6.628;2024-03-08T14:52:49;8.43;;;6.50;;
1258;SDS011;619;51.472;6.628;2024-03-08T14:55:15;6.20;;;5.40;;
1258;SDS011;619;51.472;6.628;2024-03-08T14:57:42;7.07;;;6.37;;
1258;SDS011;619;51.472;6.628;2024-03-08T15:00:10;7.60;;;6.37;;
1258;SDS011;619;51.472;6.628;2024-03-08T15:02:43;9.90;;;7.17;;
1258;SDS011;619;51.472;6.628;2024-03-08T15:05:09;6.63;;;5.43;;
1258;SDS011;619;51.472;6.628;2024-03-08T15:07:38;7.87;;;6.57;;
1258;SDS011;619;51.472;6.628;2024-03-08T15:10:06;7.27;;;6.57;;
1258;SDS011;619;51.472;6.628;2024-03-08T15:12:37;7.33;;;6.40;;
1258;SDS011;619;51.472;6.628;2024-03-08T15:15:05;5.93;;;4.60;;
1258;SDS011;619;51.472;6.628;2024-03-08T15:17:34;6.67;;;5.70;;
1258;SDS011;619;51.472;6.628;2024-03-08T15:20:05;9.20;;;5.97;;
1258;SDS011;619;51.472;6.628;2024-03-08T15:22:40;7.43;;;6.63;;
1258;SDS011;619;51.472;6.628;2024-03-08T15:25:06;9.57;;;6.00;;
1258;SDS011;619;51.472;6.628;2024-03-08T15:27:35;9.00;;;6.33;;